Time;durP1;ratioP1;P1;durP2;ratioP2;P2;SDS_P1;SDS_P2;PMS_P1;PMS_P2;Temp;Humidity;BMP_temperature;BMP_pressure;BME280_temperature;BME280_humidity;BME280_pressure;Samples;Min_cycle;Max_cycle;Signal;HPM_P1;HPM_P2
2021/08/25 00:02:09;;;;;;;14.68;6.55;;;;;;;12.48;72.25;100936.84;2155926;82;21064;-86
2021/08/25 00:05:10;;;;;;;12.73;6.35;;;;;;;12.40;72.19;100944.28;2159893;80;21046;-85
2021/08/25 00:08:11;;;;;;;15.25;6.40;;;;;;;12.37;72.35;100941.94;2159137;82;21495;-86
2021/08/25 00:11:12;;;;;;;16.73;7.85;;;;;;;12.31;72.46;100937.26;2151103;80;21421;-85
2021/08/25 00:14:14;;;;;;;14.50;7.20;;;;;;;12.19;72.57;100931.38;2145249;81;21461;-85
2021/08/25 00:17:15;;;;;;;15.58;7.50;;;;;;;12.08;72.68;100929.81;2151159;82;21043;-86
2021/08/25 00:20:16;;;;;;;10.55;6.58;;;;;;;12.02;72.83;100928.25;2144175;82;21008;-87
2021/08/25 00:23:18;;;;;;;14.58;6.87;;;;;;;11.95;73.00;100928.05;2144157;81;21636;-86
2021/08/25 00:26:19;;;;;;;17.00;8.00;;;;;;;11.85;73.06;100924.61;2153066;81;21050;-87
2021/08/25 00:29:20;;;;;;;13.83;7.35;;;;;;;11.78;73.29;100923.08;2146081;81;21008;-86
2021/08/25 00:32:21;;;;;;;19.23;7.05;;;;;;;11.73;73.25;100925.86;2141005;81;21837;-86
2021/08/25 00:35:22;;;;;;;12.55;6.58;;;;;;;11.72;73.46;100925.03;2152249;82;21022;-85
2021/08/25 00:38:23;;;;;;;13.78;7.15;;;;;;;11.74;73.62;100923.53;2140636;82;21010;-87
2021/08/25 00:41:25;;;;;;;14.20;6.65;;;;;;;11.73;73.79;100921.37;2147350;81;21736;-84
2021/08/25 00:44:27;;;;;;;13.20;7.37;;;;;;;11.74;73.79;100920.88;2140558;81;20998;-85
2021/08/25 00:47:33;;;;;;;10.50;6.20;;;;;;;11.72;73.72;100914.90;2132677;81;21009;-85
2021/08/25 00:50:37;;;;;;;13.75;6.60;;;;;;;11.66;73.66;100915.85;2144911;81;21588;-85
2021/08/25 00:53:38;;;;;;;12.23;6.70;;;;;;;11.57;73.78;100917.25;2164072;80;21040;-86
2021/08/25 00:56:42;;;;;;;15.88;7.00;;;;;;;11.53;73.81;100915.91;2161948;80;21023;-86
2021/08/25 00:59:43;;;;;;;17.70;7.90;;;;;;;11.46;73.80;100910.38;2156256;80;21063;-86
2021/08/25 01:03:27;;;;;;;13.32;6.95;;;;;;;11.36;73.90;100905.63;2148288;81;20989;-85
2021/08/25 01:06:30;;;;;;;10.68;6.95;;;;;;;11.21;73.96;100890.23;2140100;82;21516;-84
2021/08/25 01:09:31;;;;;;;14.40;6.78;;;;;;;11.29;74.05;100909.41;2169227;80;21028;-86
2021/08/25 01:12:32;;;;;;;14.30;5.87;;;;;;;11.31;74.27;100917.20;2161405;80;21488;-86
2021/08/25 01:15:37;;;;;;;11.40;5.92;;;;;;;11.27;74.25;100915.34;2138332;81;21081;-86
2021/08/25 01:18:40;;;;;;;15.93;6.53;;;;;;;11.19;74.47;100908.63;2164249;80;21055;-86
2021/08/25 01:21:42;;;;;;;9.85;6.05;;;;;;;11.19;74.47;100908.63;2152555;80;21033;-87
2021/08/25 01:24:45;;;;;;;15.83;6.20;;;;;;;11.15;74.49;100901.47;2142916;80;21093;-86
2021/08/25 01:27:58;;;;;;;11.90;7.03;;;;;;;11.11;74.67;100892.11;2173822;80;21043;-85
2021/08/25 01:30:59;;;;;;;11.03;6.40;;;;;;;10.98;74.63;100889.84;2152906;80;21026;-86
2021/08/25 01:34:07;;;;;;;15.53;6.00;;;;;;;10.93;74.84;100886.80;2191078;80;21010;-86
2021/08/25 01:37:08;;;;;;;12.47;6.28;;;;;;;10.92;75.00;100889.59;2174060;80;21498;-86
2021/08/25 01:40:11;;;;;;;8.55;5.58;;;;;;;10.88;74.92;100890.89;2169908;80;21014;-86
2021/08/25 01:43:12;;;;;;;12.13;6.30;;;;;;;10.83;75.14;100886.52;2195363;79;20985;-86
2021/08/25 01:46:22;;;;;;;12.90;6.47;;;;;;;10.83;75.14;100886.52;2162297;80;21015;-86
2021/08/25 01:49:23;;;;;;;13.55;6.15;;;;;;;10.76;75.16;100887.61;2159668;81;21542;-84
2021/08/25 01:52:24;;;;;;;10.10;6.05;;;;;;;10.68;75.24;100887.02;2131958;81;21520;-85
2021/08/25 01:55:26;;;;;;;12.18;6.33;;;;;;;10.64;75.45;100886.96;2101369;83;21059;-85
2021/08/25 01:58:26;;;;;;;18.65;6.30;;;;;;;10.58;75.44;100884.91;2100890;83;21034;-85
2021/08/25 02:01:28;;;;;;;14.10;6.05;;;;;;;10.57;75.64;100881.09;2099008;82;20971;-86
2021/08/25 02:04:29;;;;;;;14.35;6.30;;;;;;;10.54;75.50;100883.55;2130387;82;21485;-85
2021/08/25 02:07:30;;;;;;;15.90;6.50;;;;;;;10.49;75.79;100883.14;2129364;82;21011;-85
2021/08/25 02:10:33;;;;;;;15.15;6.03;;;;;;;10.44;75.87;100884.07;2135760;82;20952;-86
2021/08/25 02:13:34;;;;;;;11.95;5.70;;;;;;;10.41;76.19;100878.56;2124337;82;21060;-84
2021/08/25 02:16:36;;;;;;;11.57;6.03;;;;;;;10.42;76.32;100877.61;2124345;82;21084;-86
2021/08/25 02:19:37;;;;;;;16.27;6.30;;;;;;;10.40;76.32;100870.77;2133876;82;20991;-85
2021/08/25 02:22:38;;;;;;;15.38;5.83;;;;;;;10.39;76.52;100863.78;2130461;82;21000;-84
2021/08/25 02:25:39;;;;;;;13.35;6.40;;;;;;;10.36;76.46;100866.27;2120400;82;21009;-86
2021/08/25 02:28:40;;;;;;;12.03;5.65;;;;;;;10.34;76.46;100866.89;2107872;83;21521;-85
2021/08/25 02:31:41;;;;;;;10.90;6.30;;;;;;;10.31;76.37;100860.55;2105915;83;21037;-85
2021/08/25 02:34:43;;;;;;;9.53;5.50;;;;;;;10.29;76.53;100864.66;2120948;82;21020;-86
2021/08/25 02:37:44;;;;;;;9.40;5.72;;;;;;;10.28;76.68;100868.81;2129147;82;21542;-86
2021/08/25 02:40:45;;;;;;;12.45;5.60;;;;;;;10.27;76.72;100862.64;2127200;82;21019;-84
2021/08/25 02:43:46;;;;;;;11.10;5.62;;;;;;;10.26;76.59;100857.47;2131747;82;21576;-86
2021/08/25 02:46:47;;;;;;;14.00;6.22;;;;;;;10.18;76.63;100855.54;2133854;82;21457;-85
2021/08/25 02:49:48;;;;;;;14.25;5.67;;;;;;;10.18;76.74;100849.41;2129543;82;21205;-86
2021/08/25 02:52:49;;;;;;;13.75;6.03;;;;;;;10.13;76.70;100845.86;2140001;80;20964;-85
2021/08/25 02:55:50;;;;;;;10.75;5.30;;;;;;;10.07;76.62;100840.64;2163138;81;21061;-85
2021/08/25 02:58:51;;;;;;;15.40;5.55;;;;;;;10.03;76.56;100845.08;2162374;81;20962;-86
2021/08/25 03:01:52;;;;;;;13.32;5.72;;;;;;;9.97;76.49;100837.71;2161213;80;21104;-85
2021/08/25 03:04:54;;;;;;;16.32;5.12;;;;;;;9.93;76.61;100840.29;2165387;81;21040;-85
2021/08/25 03:07:55;;;;;;;10.25;5.20;;;;;;;9.89;76.49;100838.42;2168570;81;21049;-85
2021/08/25 03:10:56;;;;;;;13.10;5.22;;;;;;;9.85;76.48;100843.66;2169656;80;20976;-85
2021/08/25 03:13:57;;;;;;;11.12;5.70;;;;;;;9.79;76.29;100845.06;2168433;81;21013;-87
2021/08/25 03:16:59;;;;;;;12.05;6.08;;;;;;;9.73;76.41;100845.65;2158173;81;21015;-85
2021/08/25 03:20:00;;;;;;;13.25;5.78;;;;;;;9.67;76.41;100838.27;2168262;81;20974;-85
2021/08/25 03:23:01;;;;;;;11.90;5.33;;;;;;;9.63;76.44;100833.76;2156292;81;21523;-86
2021/08/25 03:26:02;;;;;;;10.32;5.00;;;;;;;9.58;76.32;100829.38;2167686;81;21488;-86
2021/08/25 03:29:03;;;;;;;7.97;4.80;;;;;;;9.49;76.23;100826.27;2160766;81;21063;-85
2021/08/25 03:32:05;;;;;;;10.93;4.87;;;;;;;9.42;76.39;100822.00;2176491;81;20994;-84
2021/08/25 03:35:08;;;;;;;10.95;5.35;;;;;;;9.38;76.27;100818.47;2164391;80;21029;-85
2021/08/25 03:38:09;;;;;;;8.13;5.05;;;;;;;9.31;76.29;100820.83;2157613;79;21032;-86
2021/08/25 03:41:10;;;;;;;9.00;5.22;;;;;;;9.24;76.27;100816.27;2165828;81;21022;-86
2021/08/25 03:44:11;;;;;;;15.32;5.42;;;;;;;9.17;76.28;100808.03;2156089;81;21006;-85
2021/08/25 03:47:12;;;;;;;12.58;4.60;;;;;;;9.13;76.22;100810.63;2167442;81;20971;-86
2021/08/25 03:50:13;;;;;;;12.78;4.28;;;;;;;9.07;76.22;100812.52;2165129;81;21029;-87
2021/08/25 03:53:14;;;;;;;9.00;4.67;;;;;;;9.04;76.21;100816.73;2151017;80;21036;-85
2021/08/25 03:56:15;;;;;;;9.90;4.15;;;;;;;9.00;76.32;100814.86;2134124;83;21505;-84
2021/08/25 03:59:16;;;;;;;9.68;4.50;;;;;;;8.93;76.39;100811.95;2152202;82;20992;-86
2021/08/25 04:02:17;;;;;;;10.18;6.03;;;;;;;8.89;76.47;100818.97;2140213;82;21028;-85
2021/08/25 04:05:19;;;;;;;14.25;5.08;;;;;;;8.86;76.57;100809.98;2131320;83;21495;-86
2021/08/25 04:08:20;;;;;;;8.60;5.35;;;;;;;8.85;76.85;100810.48;2131998;82;21035;-84
2021/08/25 04:11:21;;;;;;;10.75;5.95;;;;;;;8.82;76.86;100813.41;2147379;82;21558;-85
2021/08/25 04:14:22;;;;;;;8.20;4.53;;;;;;;8.81;77.25;100805.10;2131948;82;21538;-84
2021/08/25 04:17:23;;;;;;;8.90;4.85;;;;;;;8.88;77.21;100805.41;2148507;82;20998;-85
2021/08/25 04:20:24;;;;;;;9.08;4.22;;;;;;;8.97;77.66;100808.03;2150959;82;20993;-84
2021/08/25 04:23:25;;;;;;;7.47;4.00;;;;;;;9.16;77.26;100804.55;2122547;83;20974;-85
2021/08/25 04:26:26;;;;;;;9.00;4.30;;;;;;;9.39;77.28;100801.09;2122123;83;20998;-85
2021/08/25 04:29:27;;;;;;;9.48;4.72;;;;;;;9.67;77.17;100798.53;2097221;83;20989;-85
2021/08/25 04:32:29;;;;;;;12.55;5.30;;;;;;;9.99;77.33;100802.59;2127575;82;21040;-84
2021/08/25 04:35:30;;;;;;;10.82;5.37;;;;;;;10.34;77.14;100800.57;2134287;83;21060;-86
2021/08/25 04:38:31;;;;;;;7.40;4.33;;;;;;;10.64;76.84;100791.42;2127282;83;21049;-85
2021/08/25 04:41:32;;;;;;;7.65;4.20;;;;;;;10.92;76.19;100804.62;2147113;82;21490;-84
2021/08/25 04:44:33;;;;;;;7.58;4.65;;;;;;;11.17;75.85;100798.53;2139810;82;21037;-85
2021/08/25 04:47:34;;;;;;;10.03;5.15;;;;;;;11.49;75.78;100794.94;2123925;82;21003;-84
2021/08/25 04:50:35;;;;;;;11.75;5.20;;;;;;;11.86;75.85;100787.56;2144351;82;20991;-85
2021/08/25 04:53:38;;;;;;;8.50;4.50;;;;;;;12.31;75.33;100790.40;2133583;81;20986;-86
2021/08/25 04:56:39;;;;;;;7.70;5.15;;;;;;;12.60;74.59;100789.64;2118981;82;21039;-84
2021/08/25 04:59:40;;;;;;;9.80;5.28;;;;;;;12.97;74.34;100794.50;2125214;82;21074;-84
2021/08/25 05:02:41;;;;;;;12.00;6.05;;;;;;;13.33;73.70;100800.36;2129826;82;20991;-86
2021/08/25 05:05:42;;;;;;;10.35;4.95;;;;;;;13.65;73.26;100794.63;2138372;81;21012;-86
2021/08/25 05:08:43;;;;;;;15.03;5.40;;;;;;;13.98;73.04;100789.21;2125159;82;21503;-87
2021/08/25 05:11:44;;;;;;;9.58;5.22;;;;;;;14.40;72.60;100788.02;2123029;82;21003;-85
2021/08/25 05:14:45;;;;;;;7.95;4.40;;;;;;;14.78;72.15;100789.81;2120108;82;21333;-86
2021/08/25 05:17:47;;;;;;;9.00;4.95;;;;;;;15.08;71.44;100793.09;2123110;82;20974;-85
2021/08/25 05:20:48;;;;;;;10.50;5.22;;;;;;;15.47;71.19;100779.53;2129513;82;21040;-86
2021/08/25 05:23:49;;;;;;;10.75;4.85;;;;;;;15.89;70.42;100783.46;2123198;82;21046;-87
2021/08/25 05:26:50;;;;;;;8.25;5.28;;;;;;;16.17;69.61;100780.11;2124209;82;21063;-87
2021/08/25 05:29:51;;;;;;;10.00;4.92;;;;;;;16.46;69.07;100777.35;2109744;82;21045;-87
2021/08/25 05:32:52;;;;;;;10.20;5.10;;;;;;;16.74;68.56;100776.10;2131074;82;21497;-85
2021/08/25 05:35:54;;;;;;;9.93;5.85;;;;;;;16.97;67.84;100779.13;2125585;82;21029;-87
2021/08/25 05:38:55;;;;;;;9.78;5.53;;;;;;;17.24;67.54;100765.45;2122966;82;21050;-86
2021/08/25 05:41:56;;;;;;;10.25;5.60;;;;;;;17.48;66.43;100766.35;2130293;82;20950;-86
2021/08/25 05:44:57;;;;;;;9.78;5.92;;;;;;;17.78;66.50;100771.50;2119612;82;21478;-86
2021/08/25 05:47:58;;;;;;;10.90;5.37;;;;;;;17.70;63.63;100773.79;2119958;82;20975;-84
2021/08/25 05:51:00;;;;;;;8.45;5.53;;;;;;;17.20;63.64;100771.72;2119150;82;21041;-87
2021/08/25 05:54:01;;;;;;;10.35;5.92;;;;;;;17.19;64.70;100774.06;2128927;82;21014;-87
2021/08/25 05:57:02;;;;;;;11.83;6.28;;;;;;;17.11;64.33;100768.02;2140589;81;21032;-86
2021/08/25 06:00:04;;;;;;;13.65;5.87;;;;;;;17.31;64.17;100770.33;2141999;81;21018;-86
2021/08/25 06:03:07;;;;;;;13.10;6.20;;;;;;;17.52;64.70;100771.32;2141201;81;21473;-86
2021/08/25 06:06:11;;;;;;;10.60;6.15;;;;;;;17.90;64.24;100769.08;2149697;81;21029;-86
2021/08/25 06:09:13;;;;;;;11.30;5.95;;;;;;;18.15;63.42;100764.03;2153277;81;20982;-85
2021/08/25 06:12:14;;;;;;;13.83;6.58;;;;;;;18.58;63.48;100769.96;2140645;82;21005;-86
2021/08/25 06:15:15;;;;;;;9.93;5.85;;;;;;;18.94;60.52;100773.34;2148107;81;21050;-86
2021/08/25 06:18:17;;;;;;;11.00;6.15;;;;;;;18.53;60.74;100779.14;2150259;81;21014;-87
2021/08/25 06:21:18;;;;;;;10.20;5.62;;;;;;;18.44;59.37;100776.30;2151113;81;21067;-85
2021/08/25 06:24:19;;;;;;;14.00;5.95;;;;;;;18.40;60.72;100779.62;2142919;81;21130;-86
2021/08/25 06:27:20;;;;;;;8.38;5.72;;;;;;;18.76;59.93;100778.80;2146313;82;21002;-87
2021/08/25 06:30:21;;;;;;;9.08;4.90;;;;;;;18.75;58.18;100767.75;2136504;82;21001;-85
2021/08/25 06:33:22;;;;;;;8.35;5.85;;;;;;;18.52;58.34;100771.27;2137108;81;21074;-86
2021/08/25 06:36:24;;;;;;;9.85;5.47;;;;;;;18.45;58.32;100769.09;2149460;81;20974;-86
2021/08/25 06:39:25;;;;;;;12.47;5.95;;;;;;;18.51;58.18;100766.94;2150201;81;21019;-86
2021/08/25 06:42:26;;;;;;;10.18;5.37;;;;;;;18.51;58.49;100770.45;2159353;81;21038;-86
2021/08/25 06:45:28;;;;;;;10.65;4.67;;;;;;;18.83;58.07;100767.23;2146941;81;21017;-86
2021/08/25 06:48:30;;;;;;;7.62;4.72;;;;;;;18.85;55.99;100759.80;2145900;82;20995;-87
2021/08/25 06:51:32;;;;;;;7.03;5.17;;;;;;;18.83;57.57;100757.81;2146031;81;21004;-84
2021/08/25 06:54:34;;;;;;;7.15;4.78;;;;;;;19.26;57.56;100756.38;2147832;81;21493;-87
2021/08/25 06:57:37;;;;;;;6.85;4.87;;;;;;;19.75;57.64;100749.38;2170270;80;21520;-87
2021/08/25 07:00:38;;;;;;;7.30;4.90;;;;;;;20.19;57.29;100749.94;2167270;80;21495;-86
2021/08/25 07:03:39;;;;;;;7.80;4.33;;;;;;;20.51;56.38;100741.36;2158646;80;20979;-86
2021/08/25 07:06:40;;;;;;;12.30;4.90;;;;;;;20.84;55.16;100747.61;2156677;81;21006;-87
2021/08/25 07:09:42;;;;;;;8.23;4.40;;;;;;;21.05;55.16;100739.94;2152763;81;20974;-86
2021/08/25 07:12:43;;;;;;;6.50;4.35;;;;;;;21.07;54.19;100735.69;2172013;81;21001;-86
2021/08/25 07:15:44;;;;;;;9.70;4.97;;;;;;;21.36;54.26;100731.98;2159054;81;21075;-86
2021/08/25 07:18:47;;;;;;;9.70;4.55;;;;;;;21.70;53.87;100733.31;2180695;80;21528;-86
2021/08/25 07:21:48;;;;;;;7.47;4.72;;;;;;;22.01;53.46;100727.44;2131143;82;21016;-86
2021/08/25 07:24:50;;;;;;;11.18;5.45;;;;;;;22.34;52.79;100729.20;2128750;82;21474;-86
2021/08/25 07:27:51;;;;;;;8.73;4.90;;;;;;;22.58;52.31;100730.12;2129247;81;21023;-87
2021/08/25 07:30:52;;;;;;;7.67;4.90;;;;;;;22.68;51.88;100724.13;2144838;81;21025;-86
2021/08/25 07:33:53;;;;;;;6.60;4.72;;;;;;;23.04;51.20;100723.16;2171246;81;21151;-86
2021/08/25 07:36:55;;;;;;;7.42;5.00;;;;;;;23.04;50.65;100715.03;2150607;81;21063;-86
2021/08/25 07:39:57;;;;;;;7.70;4.87;;;;;;;22.99;50.31;100707.33;2165265;81;21028;-88
2021/08/25 07:42:58;;;;;;;12.25;5.12;;;;;;;22.96;49.80;100707.27;2163636;80;20988;-88
2021/08/25 07:45:59;;;;;;;11.12;5.30;;;;;;;23.14;49.45;100699.55;2168582;80;21024;-88
2021/08/25 07:49:07;;;;;;;9.00;5.40;;;;;;;23.06;48.87;100699.92;2155983;81;21033;-86
2021/08/25 07:52:09;;;;;;;8.43;5.05;;;;;;;23.07;48.98;100698.86;2165419;80;21070;-87
2021/08/25 07:55:11;;;;;;;9.73;5.22;;;;;;;23.33;48.98;100699.43;2171407;80;21002;-86
2021/08/25 07:58:13;;;;;;;8.55;5.60;;;;;;;23.62;48.44;100697.08;2149899;81;21018;-87
2021/08/25 08:01:14;;;;;;;10.40;4.47;;;;;;;23.79;47.95;100693.11;2157066;81;21051;-86
2021/08/25 08:04:15;;;;;;;8.48;5.30;;;;;;;23.67;47.65;100686.34;2160610;81;21481;-86
2021/08/25 08:07:16;;;;;;;10.70;5.83;;;;;;;23.38;47.71;100687.36;2155758;81;20967;-87
2021/08/25 08:10:17;;;;;;;9.75;5.80;;;;;;;23.43;47.74;100683.42;2149826;81;21440;-88
2021/08/25 08:13:19;;;;;;;9.58;5.50;;;;;;;23.48;46.96;100680.29;2132765;82;21035;-86
2021/08/25 08:16:21;;;;;;;8.35;5.08;;;;;;;23.26;46.71;100672.50;2165420;81;21033;-87
2021/08/25 08:19:28;;;;;;;7.83;5.15;;;;;;;23.43;46.77;100676.11;2152013;80;21028;-87
2021/08/25 08:22:26;;;;;;;7.97;5.28;;;;;;;23.63;45.69;100671.66;2153556;81;20988;-87
2021/08/25 08:25:27;;;;;;;7.22;4.45;;;;;;;23.50;46.13;100671.91;2162399;81;21421;-85
2021/08/25 08:28:28;;;;;;;11.25;5.30;;;;;;;23.08;45.74;100671.26;2171364;81;21437;-85
2021/08/25 08:31:31;;;;;;;7.83;5.15;;;;;;;22.98;46.29;100654.27;2168054;81;21009;-87
2021/08/25 08:34:35;;;;;;;7.62;5.22;;;;;;;22.56;45.79;100655.15;2162885;81;21002;-86
2021/08/25 08:37:36;;;;;;;6.62;5.00;;;;;;;22.51;45.30;100649.61;2154393;80;21005;-87
2021/08/25 08:40:37;;;;;;;7.92;5.35;;;;;;;22.54;45.80;100641.56;2173006;79;20990;-87
2021/08/25 08:43:48;;;;;;;8.98;5.17;;;;;;;22.88;45.80;100636.41;2164199;81;21001;-87
2021/08/25 08:46:50;;;;;;;10.23;5.92;;;;;;;23.24;44.94;100630.76;2182520;79;21057;-88
2021/08/25 08:49:55;;;;;;;9.68;5.05;;;;;;;23.07;44.82;100629.84;2156266;81;21018;-86
2021/08/25 08:52:57;;;;;;;12.53;4.87;;;;;;;22.56;44.76;100627.28;2164651;81;20958;-86
2021/08/25 08:55:58;;;;;;;9.58;5.25;;;;;;;22.12;45.30;100632.91;2188320;80;21014;-87
2021/08/25 08:59:01;;;;;;;9.33;5.10;;;;;;;22.27;45.93;100624.92;2193784;80;21561;-85
2021/08/25 09:02:02;;;;;;;8.20;5.12;;;;;;;22.55;45.46;100621.56;2181803;80;21481;-87
2021/08/25 09:05:22;;;;;;;8.18;5.05;;;;;;;22.49;45.21;100617.91;2181777;80;21056;-86
2021/08/25 09:08:28;;;;;;;8.15;4.72;;;;;;;22.57;45.36;100618.11;2188769;79;21018;-86
2021/08/25 09:11:29;;;;;;;9.13;4.60;;;;;;;21.93;45.08;100621.36;2182845;80;21011;-85
2021/08/25 09:14:30;;;;;;;7.72;4.72;;;;;;;21.45;45.17;100618.64;2193164;80;20998;-87
2021/08/25 09:17:31;;;;;;;7.65;4.97;;;;;;;21.16;45.55;100612.11;2191713;80;21067;-86
2021/08/25 09:20:40;;;;;;;6.97;4.90;;;;;;;21.61;45.48;100609.93;2188253;80;21461;-86
2021/08/25 09:23:45;;;;;;;8.20;4.70;;;;;;;21.76;44.64;100601.95;2160622;80;21657;-87
2021/08/25 09:27:08;;;;;;;7.65;4.92;;;;;;;21.59;44.93;100589.61;2177807;79;21505;-87
2021/08/25 09:30:11;;;;;;;7.30;4.75;;;;;;;21.31;44.83;100596.35;2187863;80;20963;-86
2021/08/25 09:33:12;;;;;;;7.58;4.90;;;;;;;21.12;45.48;100590.66;2184673;80;21504;-86
2021/08/25 09:36:19;;;;;;;6.97;4.83;;;;;;;21.46;45.42;100586.57;2185137;80;21544;-87
2021/08/25 09:39:23;;;;;;;13.68;5.20;;;;;;;21.58;45.19;100582.04;2183285;79;21484;-87
2021/08/25 09:42:25;;;;;;;9.63;5.10;;;;;;;21.25;44.28;100576.48;2195326;79;21576;-85
2021/08/25 09:45:26;;;;;;;9.50;5.10;;;;;;;20.70;45.02;100568.92;2184720;80;21522;-86
2021/08/25 09:48:38;;;;;;;7.40;4.65;;;;;;;20.54;45.28;100564.38;2180675;80;21723;-87
2021/08/25 09:51:39;;;;;;;9.58;5.20;;;;;;;20.63;46.11;100562.75;2172202;80;21026;-87
2021/08/25 09:54:59;;;;;;;7.17;5.12;;;;;;;21.10;46.22;100557.70;2184806;80;21009;-87
2021/08/25 09:58:01;;;;;;;8.60;4.97;;;;;;;21.16;45.68;100557.61;2140496;82;21501;-85
2021/08/25 10:01:03;;;;;;;7.03;5.05;;;;;;;21.47;45.76;100549.06;2139932;81;21021;-86
2021/08/25 10:04:11;;;;;;;8.58;5.10;;;;;;;21.78;45.33;100553.41;2137907;80;21008;-87
2021/08/25 10:07:13;;;;;;;9.33;5.50;;;;;;;22.11;45.34;100548.03;2147362;81;21008;-87
2021/08/25 10:10:14;;;;;;;7.90;5.35;;;;;;;22.27;44.81;100536.58;2141105;81;21000;-85
2021/08/25 10:13:15;;;;;;;6.85;4.78;;;;;;;22.56;44.22;100536.17;2146976;81;21125;-86
2021/08/25 10:16:46;;;;;;;8.48;5.60;;;;;;;22.35;43.77;100530.80;2145475;82;20995;-85
2021/08/25 10:19:47;;;;;;;9.40;5.20;;;;;;;22.07;43.68;100526.04;2133375;82;21039;-86
2021/08/25 10:22:50;;;;;;;7.65;5.30;;;;;;;21.81;43.85;100517.02;2142652;82;21006;-85
2021/08/25 10:26:08;;;;;;;9.43;5.17;;;;;;;21.40;44.31;100522.17;2139554;82;21045;-87
2021/08/25 10:29:11;;;;;;;7.00;4.92;;;;;;;20.90;43.31;100525.56;2120581;83;21029;-86
2021/08/25 10:32:14;;;;;;;7.72;4.90;;;;;;;20.28;44.69;100508.02;2124508;83;21041;-85
2021/08/25 10:35:30;;;;;;;10.93;5.15;;;;;;;20.05;45.25;100502.71;2118088;83;21040;-87
2021/08/25 10:38:33;;;;;;;9.45;5.67;;;;;;;20.26;45.50;100499.31;2146412;81;21350;-86
2021/08/25 10:41:40;;;;;;;7.37;5.22;;;;;;;20.81;45.43;100485.94;2132320;82;20986;-87
2021/08/25 10:44:47;;;;;;;7.95;5.42;;;;;;;21.44;45.89;100480.16;2154980;81;21117;-87
2021/08/25 10:48:02;;;;;;;10.00;5.53;;;;;;;21.89;44.56;100471.58;2145262;81;21513;-87
2021/08/25 10:51:03;;;;;;;10.53;5.40;;;;;;;21.82;44.57;100466.83;2148292;82;21007;-86
2021/08/25 10:54:09;;;;;;;6.95;5.47;;;;;;;21.58;44.79;100466.47;2156752;81;21029;-86
2021/08/25 10:57:17;;;;;;;8.48;5.20;;;;;;;21.26;44.59;100464.81;2176268;80;21107;-87
2021/08/25 11:00:19;;;;;;;9.13;5.70;;;;;;;20.97;44.70;100458.86;2183774;80;21142;-87
2021/08/25 11:03:36;;;;;;;7.03;4.92;;;;;;;20.74;45.31;100447.43;2177009;80;21055;-86
2021/08/25 11:06:52;;;;;;;9.55;5.55;;;;;;;21.08;45.64;100445.95;2178331;80;20947;-87
2021/08/25 11:09:53;;;;;;;7.55;4.78;;;;;;;21.40;45.17;100435.80;2182239;80;21068;-87
2021/08/25 11:12:54;;;;;;;9.80;5.58;;;;;;;21.65;45.19;100428.03;2171015;80;21021;-87
2021/08/25 11:15:56;;;;;;;9.63;5.20;;;;;;;21.31;44.21;100419.58;2183746;80;21453;-86
2021/08/25 11:18:57;;;;;;;8.70;5.03;;;;;;;20.93;44.16;100409.14;2185096;80;21018;-85
2021/08/25 11:22:01;;;;;;;8.93;5.50;;;;;;;20.72;44.72;100409.08;2168799;80;21009;-85
2021/08/25 11:25:10;;;;;;;10.82;5.15;;;;;;;20.89;44.81;100392.59;2179708;80;21071;-87
2021/08/25 11:28:11;;;;;;;7.47;5.00;;;;;;;21.15;44.42;100390.58;2175499;80;20974;-87
2021/08/25 11:31:14;;;;;;;7.17;5.08;;;;;;;21.15;44.65;100389.23;2185758;80;20962;-87
2021/08/25 11:34:16;;;;;;;9.33;4.92;;;;;;;21.27;44.46;100380.63;2169765;80;21057;-86
2021/08/25 11:37:24;;;;;;;8.80;5.95;;;;;;;21.29;44.24;100382.58;2181175;80;21006;-86
2021/08/25 11:40:25;;;;;;;8.15;5.30;;;;;;;20.98;44.60;100378.27;2175291;80;21030;-86
2021/08/25 11:43:26;;;;;;;8.13;5.55;;;;;;;20.73;44.38;100379.73;2182922;80;20974;-86
2021/08/25 11:46:27;;;;;;;8.55;5.95;;;;;;;20.46;44.57;100369.77;2166484;81;20976;-86
2021/08/25 11:49:28;;;;;;;7.85;4.97;;;;;;;20.67;44.93;100367.98;2165507;80;21027;-87
2021/08/25 11:52:34;;;;;;;9.33;5.10;;;;;;;20.94;45.06;100357.64;2182601;80;21003;-85
2021/08/25 11:55:36;;;;;;;7.80;4.72;;;;;;;21.08;44.62;100350.72;2187537;80;21086;-87
2021/08/25 11:58:38;;;;;;;9.58;5.78;;;;;;;21.04;44.65;100350.36;2181528;80;21086;-86
2021/08/25 12:01:39;;;;;;;7.92;4.62;;;;;;;21.03;44.81;100344.66;2164050;81;21046;-86
2021/08/25 12:04:40;;;;;;;12.18;6.03;;;;;;;21.17;44.80;100333.95;2153302;81;21009;-86
2021/08/25 12:08:10;;;;;;;9.03;5.20;;;;;;;21.35;44.11;100330.38;2161406;80;21099;-86
2021/08/25 12:11:14;;;;;;;8.83;5.25;;;;;;;21.39;44.25;100328.05;2190963;80;21121;-86
2021/08/25 12:14:15;;;;;;;8.58;5.00;;;;;;;21.57;44.75;100323.06;2191732;80;21008;-86
2021/08/25 12:17:17;;;;;;;7.17;4.97;;;;;;;21.73;44.55;100310.22;2184568;80;21023;-86
2021/08/25 12:20:18;;;;;;;8.50;5.33;;;;;;;21.78;44.24;100313.04;2193840;80;21528;-86
2021/08/25 12:23:24;;;;;;;9.80;4.50;;;;;;;21.61;43.73;100303.48;2190881;80;21014;-86
2021/08/25 12:26:26;;;;;;;11.15;5.37;;;;;;;21.68;44.24;100303.34;2187249;80;21110;-86
2021/08/25 12:29:30;;;;;;;7.47;4.80;;;;;;;21.75;44.41;100297.31;2189116;79;21516;-87
2021/08/25 12:32:42;;;;;;;7.10;4.67;;;;;;;21.77;43.83;100287.10;2186628;80;21091;-87
2021/08/25 12:35:43;;;;;;;9.48;5.33;;;;;;;21.74;44.21;100285.38;2190274;80;21016;-86
2021/08/25 12:38:44;;;;;;;7.80;5.40;;;;;;;21.82;43.90;100283.17;2178107;80;21002;-88
2021/08/25 12:41:46;;;;;;;6.83;4.55;;;;;;;21.81;43.90;100284.20;2191843;80;21584;-87
2021/08/25 12:44:48;;;;;;;9.88;5.83;;;;;;;21.76;43.93;100278.69;2187143;80;21465;-87
2021/08/25 12:47:53;;;;;;;7.10;5.12;;;;;;;21.77;43.91;100277.66;2180769;80;20994;-86
2021/08/25 12:50:54;;;;;;;9.35;5.15;;;;;;;21.85;44.72;100277.30;2184908;80;21034;-86
2021/08/25 12:53:55;;;;;;;10.38;5.70;;;;;;;21.77;44.55;100269.55;2189958;80;21485;-86
2021/08/25 12:56:57;;;;;;;7.33;5.17;;;;;;;21.74;44.28;100264.63;2152704;80;21505;-87
2021/08/25 12:59:58;;;;;;;9.10;5.62;;;;;;;21.72;44.35;100268.08;2155860;82;21071;-87
2021/08/25 13:02:59;;;;;;;7.45;5.50;;;;;;;21.81;43.76;100255.84;2156703;81;20999;-87
2021/08/25 13:06:00;;;;;;;9.65;5.62;;;;;;;21.73;43.35;100260.27;2156148;81;21003;-86
2021/08/25 13:09:02;;;;;;;9.40;5.80;;;;;;;21.54;43.35;100261.45;2163063;81;21469;-85
2021/08/25 13:12:04;;;;;;;8.88;6.30;;;;;;;21.56;43.91;100260.70;2167990;81;21015;-87
2021/08/25 13:15:07;;;;;;;8.50;5.42;;;;;;;21.72;43.75;100247.83;2167667;81;21138;-87
2021/08/25 13:18:08;;;;;;;9.45;5.53;;;;;;;21.75;44.20;100239.79;2150404;82;21015;-87
2021/08/25 13:21:10;;;;;;;8.05;5.53;;;;;;;21.76;43.85;100237.37;2155310;82;21504;-86
2021/08/25 13:24:11;;;;;;;9.50;5.08;;;;;;;21.71;43.58;100230.00;2119289;82;21081;-86
2021/08/25 13:27:12;;;;;;;9.00;5.55;;;;;;;21.55;44.06;100226.13;2124747;82;21039;-86
2021/08/25 13:30:14;;;;;;;10.72;5.65;;;;;;;21.43;44.24;100212.66;2156957;81;21504;-87
2021/08/25 13:33:15;;;;;;;7.72;5.25;;;;;;;21.23;44.30;100210.78;2158200;81;21041;-87
2021/08/25 13:36:16;;;;;;;9.23;6.05;;;;;;;21.34;44.21;100205.91;2156796;82;21055;-85
2021/08/25 13:39:18;;;;;;;8.73;5.33;;;;;;;21.53;44.79;100205.83;2163418;82;20999;-86
2021/08/25 13:42:19;;;;;;;9.80;5.87;;;;;;;21.54;44.51;100198.86;2163903;82;21560;-87
2021/08/25 13:45:20;;;;;;;8.55;5.42;;;;;;;21.55;44.65;100196.44;2165657;81;21026;-86
2021/08/25 13:48:22;;;;;;;10.30;5.50;;;;;;;21.53;44.32;100188.28;2159454;82;20995;-87
2021/08/25 13:51:23;;;;;;;7.42;5.25;;;;;;;21.47;44.30;100186.00;2156721;82;20976;-86
2021/08/25 13:54:24;;;;;;;9.43;5.33;;;;;;;21.34;45.00;100184.86;2158885;82;21003;-86
2021/08/25 13:57:25;;;;;;;9.90;6.00;;;;;;;21.47;44.45;100186.00;2169591;80;21054;-86
2021/08/25 14:00:27;;;;;;;13.90;5.75;;;;;;;21.43;44.35;100179.45;2186340;80;21062;-86
2021/08/25 14:03:28;;;;;;;9.23;5.87;;;;;;;21.40;44.60;100171.80;2191705;79;21018;-86
2021/08/25 14:06:30;;;;;;;13.65;5.72;;;;;;;21.40;44.33;100161.00;2186341;80;21018;-86